sensor_id;sensor_type;location;lat;lon;timestamp;P1;durP1;ratioP1;P2;durP2;ratioP2
18334;SDS011;9293;49.524;10.964;2022-10-16T00:01:43;4.53;;;1.73;;
18334;SDS011;9293;49.524;10.964;2022-10-16T00:04:11;3.40;;;1.88;;
18334;SDS011;9293;49.524;10.964;2022-10-16T00:06:39;5.32;;;2.22;;
18334;SDS011;9293;49.524;10.964;2022-10-16T00:09:12;3.97;;;1.80;;
18334;SDS011;9293;49.524;10.964;2022-10-16T00:11:42;3.50;;;1.90;;
18334;SDS011;9293;49.524;10.964;2022-10-16T00:14:12;5.00;;;1.88;;
18334;SDS011;9293;49.524;10.964;2022-10-16T00:16:42;4.78;;;2.00;;
18334;SDS011;9293;49.524;10.964;2022-10-16T00:19:10;4.90;;;2.17;;
18334;SDS011;9293;49.524;10.964;2022-10-16T00:21:39;5.25;;;1.90;;
18334;SDS011;9293;49.524;10.964;2022-10-16T00:24:08;4.68;;;2.05;;
18334;SDS011;9293;49.524;10.964;2022-10-16T00:26:37;7.00;;;1.70;;
18334;SDS011;9293;49.524;10.964;2022-10-16T00:29:06;8.13;;;2.30;;
18334;SDS011;9293;49.524;10.964;2022-10-16T00:31:35;4.82;;;2.28;;
18334;SDS011;9293;49.524;10.964;2022-10-16T00:34:04;5.63;;;2.55;;
18334;SDS011;9293;49.524;10.964;2022-10-16T00:36:32;4.97;;;2.00;;
18334;SDS011;9293;49.524;10.964;2022-10-16T00:39:00;4.28;;;2.00;;
18334;SDS011;9293;49.524;10.964;2022-10-16T00:41:29;4.90;;;2.33;;
18334;SDS011;9293;49.524;10.964;2022-10-16T00:43:59;4.82;;;1.65;;
18334;SDS011;9293;49.524;10.964;2022-10-16T00:46:40;5.45;;;1.90;;
18334;SDS011;9293;49.524;10.964;2022-10-16T00:49:10;3.25;;;1.48;;
18334;SDS011;9293;49.524;10.964;2022-10-16T00:51:45;4.07;;;1.80;;
18334;SDS011;9293;49.524;10.964;2022-10-16T00:54:21;2.92;;;1.52;;
18334;SDS011;9293;49.524;10.964;2022-10-16T00:56:55;4.15;;;1.92;;
18334;SDS011;9293;49.524;10.964;2022-10-16T00:59:33;2.45;;;1.40;;
18334;SDS011;9293;49.524;10.964;2022-10-16T01:02:05;4.22;;;1.30;;
18334;SDS011;9293;49.524;10.964;2022-10-16T01:04:35;4.88;;;1.50;;
18334;SDS011;9293;49.524;10.964;2022-10-16T01:07:18;4.00;;;1.70;;
18334;SDS011;9293;49.524;10.964;2022-10-16T01:12:36;4.80;;;1.77;;
18334;SDS011;9293;49.524;10.964;2022-10-16T01:15:31;2.13;;;1.40;;
18334;SDS011;9293;49.524;10.964;2022-10-16T01:21:08;4.40;;;1.50;;
18334;SDS011;9293;49.524;10.964;2022-10-16T01:26:18;3.47;;;1.77;;
18334;SDS011;9293;49.524;10.964;2022-10-16T01:29:03;3.13;;;1.63;;
18334;SDS011;9293;49.524;10.964;2022-10-16T01:32:02;5.25;;;2.03;;
18334;SDS011;9293;49.524;10.964;2022-10-16T01:34:38;2.00;;;1.30;;
18334;SDS011;9293;49.524;10.964;2022-10-16T01:37:15;1.70;;;1.35;;
18334;SDS011;9293;49.524;10.964;2022-10-16T01:39:52;5.10;;;1.80;;
18334;SDS011;9293;49.524;10.964;2022-10-16T01:42:27;3.17;;;1.40;;
18334;SDS011;9293;49.524;10.964;2022-10-16T01:45:00;6.30;;;1.83;;
18334;SDS011;9293;49.524;10.964;2022-10-16T01:47:33;5.18;;;2.40;;
18334;SDS011;9293;49.524;10.964;2022-10-16T01:50:03;5.88;;;3.65;;
18334;SDS011;9293;49.524;10.964;2022-10-16T01:52:34;2.05;;;1.35;;
18334;SDS011;9293;49.524;10.964;2022-10-16T01:55:05;6.55;;;1.80;;
18334;SDS011;9293;49.524;10.964;2022-10-16T01:57:36;3.05;;;1.65;;
18334;SDS011;9293;49.524;10.964;2022-10-16T02:00:09;4.72;;;1.50;;
18334;SDS011;9293;49.524;10.964;2022-10-16T02:02:40;2.40;;;1.50;;
18334;SDS011;9293;49.524;10.964;2022-10-16T02:05:16;3.03;;;1.55;;
18334;SDS011;9293;49.524;10.964;2022-10-16T02:07:52;3.40;;;1.70;;
18334;SDS011;9293;49.524;10.964;2022-10-16T02:10:20;5.10;;;1.20;;
18334;SDS011;9293;49.524;10.964;2022-10-16T02:12:57;5.05;;;1.63;;
18334;SDS011;9293;49.524;10.964;2022-10-16T02:15:30;6.13;;;1.67;;
18334;SDS011;9293;49.524;10.964;2022-10-16T02:17:59;4.35;;;1.40;;
18334;SDS011;9293;49.524;10.964;2022-10-16T02:20:29;3.20;;;1.45;;
18334;SDS011;9293;49.524;10.964;2022-10-16T02:23:04;6.47;;;1.55;;
18334;SDS011;9293;49.524;10.964;2022-10-16T02:25:35;4.00;;;1.73;;
18334;SDS011;9293;49.524;10.964;2022-10-16T02:28:17;3.20;;;1.88;;
18334;SDS011;9293;49.524;10.964;2022-10-16T02:30:52;4.32;;;1.90;;
18334;SDS011;9293;49.524;10.964;2022-10-16T02:33:26;5.55;;;2.13;;
18334;SDS011;9293;49.524;10.964;2022-10-16T02:35:57;3.50;;;1.73;;
18334;SDS011;9293;49.524;10.964;2022-10-16T02:38:25;1.67;;;1.38;;
18334;SDS011;9293;49.524;10.964;2022-10-16T02:40:54;2.88;;;1.63;;
18334;SDS011;9293;49.524;10.964;2022-10-16T02:43:22;5.07;;;1.40;;
18334;SDS011;9293;49.524;10.964;2022-10-16T02:45:52;3.80;;;1.65;;
18334;SDS011;9293;49.524;10.964;2022-10-16T02:48:20;2.70;;;1.48;;
18334;SDS011;9293;49.524;10.964;2022-10-16T02:50:51;4.60;;;1.50;;
18334;SDS011;9293;49.524;10.964;2022-10-16T02:53:19;3.95;;;1.60;;
18334;SDS011;9293;49.524;10.964;2022-10-16T02:55:51;4.88;;;1.70;;
18334;SDS011;9293;49.524;10.964;2022-10-16T02:58:19;3.92;;;1.88;;
18334;SDS011;9293;49.524;10.964;2022-10-16T03:00:47;3.97;;;1.30;;
18334;SDS011;9293;49.524;10.964;2022-10-16T03:03:15;6.07;;;1.90;;
18334;SDS011;9293;49.524;10.964;2022-10-16T03:05:43;7.15;;;1.83;;
18334;SDS011;9293;49.524;10.964;2022-10-16T03:08:13;5.53;;;1.83;;
18334;SDS011;9293;49.524;10.964;2022-10-16T03:10:41;3.40;;;1.73;;
18334;SDS011;9293;49.524;10.964;2022-10-16T03:13:09;7.15;;;1.80;;
18334;SDS011;9293;49.524;10.964;2022-10-16T03:15:37;2.17;;;1.83;;
18334;SDS011;9293;49.524;10.964;2022-10-16T03:18:05;9.48;;;1.73;;
18334;SDS011;9293;49.524;10.964;2022-10-16T03:20:32;3.78;;;1.42;;
18334;SDS011;9293;49.524;10.964;2022-10-16T03:23:00;3.17;;;1.40;;
18334;SDS011;9293;49.524;10.964;2022-10-16T03:25:31;3.17;;;1.65;;
18334;SDS011;9293;49.524;10.964;2022-10-16T03:28:00;9.13;;;2.00;;
18334;SDS011;9293;49.524;10.964;2022-10-16T03:30:28;5.10;;;1.60;;
18334;SDS011;9293;49.524;10.964;2022-10-16T03:32:56;5.28;;;1.60;;
18334;SDS011;9293;49.524;10.964;2022-10-16T03:35:24;3.13;;;1.77;;
18334;SDS011;9293;49.524;10.964;2022-10-16T03:37:52;2.30;;;1.70;;
18334;SDS011;9293;49.524;10.964;2022-10-16T03:40:20;5.90;;;2.28;;
18334;SDS011;9293;49.524;10.964;2022-10-16T03:42:48;4.25;;;2.15;;
18334;SDS011;9293;49.524;10.964;2022-10-16T03:45:16;6.13;;;2.33;;
18334;SDS011;9293;49.524;10.964;2022-10-16T03:47:44;3.97;;;2.50;;
18334;SDS011;9293;49.524;10.964;2022-10-16T03:50:12;3.88;;;2.15;;
18334;SDS011;9293;49.524;10.964;2022-10-16T03:52:40;3.13;;;1.80;;
18334;SDS011;9293;49.524;10.964;2022-10-16T03:55:08;5.72;;;2.03;;
18334;SDS011;9293;49.524;10.964;2022-10-16T03:57:36;3.72;;;2.10;;
18334;SDS011;9293;49.524;10.964;2022-10-16T04:00:04;3.53;;;1.88;;
18334;SDS011;9293;49.524;10.964;2022-10-16T04:02:37;3.78;;;1.67;;
18334;SDS011;9293;49.524;10.964;2022-10-16T04:05:05;3.35;;;1.65;;
18334;SDS011;9293;49.524;10.964;2022-10-16T04:07:34;4.95;;;2.33;;
18334;SDS011;9293;49.524;10.964;2022-10-16T04:10:04;3.05;;;2.00;;
18334;SDS011;9293;49.524;10.964;2022-10-16T04:12:33;5.60;;;3.17;;
18334;SDS011;9293;49.524;10.964;2022-10-16T04:15:01;6.93;;;2.47;;
18334;SDS011;9293;49.524;10.964;2022-10-16T04:17:29;7.03;;;1.67;;
18334;SDS011;9293;49.524;10.964;2022-10-16T04:19:57;5.25;;;1.80;;
18334;SDS011;9293;49.524;10.964;2022-10-16T04:22:25;2.58;;;1.70;;
18334;SDS011;9293;49.524;10.964;2022-10-16T04:24:57;4.28;;;1.88;;
18334;SDS011;9293;49.524;10.964;2022-10-16T04:27:25;4.22;;;1.73;;
18334;SDS011;9293;49.524;10.964;2022-10-16T04:29:54;3.40;;;1.55;;
18334;SDS011;9293;49.524;10.964;2022-10-16T04:32:22;5.07;;;1.80;;
18334;SDS011;9293;49.524;10.964;2022-10-16T04:34:50;6.03;;;1.98;;
18334;SDS011;9293;49.524;10.964;2022-10-16T04:37:18;5.25;;;1.95;;
18334;SDS011;9293;49.524;10.964;2022-10-16T04:39:50;3.95;;;1.80;;
18334;SDS011;9293;49.524;10.964;2022-10-16T04:42:23;4.50;;;1.77;;
18334;SDS011;9293;49.524;10.964;2022-10-16T04:44:55;3.55;;;2.25;;
18334;SDS011;9293;49.524;10.964;2022-10-16T04:47:23;4.95;;;1.80;;
18334;SDS011;9293;49.524;10.964;2022-10-16T04:49:51;4.82;;;1.60;;
18334;SDS011;9293;49.524;10.964;2022-10-16T04:52:19;4.00;;;1.90;;
18334;SDS011;9293;49.524;10.964;2022-10-16T04:54:48;3.63;;;2.10;;
18334;SDS011;9293;49.524;10.964;2022-10-16T04:57:17;4.47;;;2.10;;
18334;SDS011;9293;49.524;10.964;2022-10-16T04:59:45;3.92;;;1.80;;
18334;SDS011;9293;49.524;10.964;2022-10-16T05:02:14;3.70;;;2.00;;
18334;SDS011;9293;49.524;10.964;2022-10-16T05:04:42;3.83;;;1.67;;
18334;SDS011;9293;49.524;10.964;2022-10-16T05:07:10;4.80;;;1.90;;
18334;SDS011;9293;49.524;10.964;2022-10-16T05:09:38;5.70;;;2.10;;
18334;SDS011;9293;49.524;10.964;2022-10-16T05:12:06;4.28;;;2.08;;
18334;SDS011;9293;49.524;10.964;2022-10-16T05:14:34;4.18;;;1.90;;
18334;SDS011;9293;49.524;10.964;2022-10-16T05:17:02;5.25;;;2.03;;
18334;SDS011;9293;49.524;10.964;2022-10-16T05:19:30;7.93;;;2.45;;
18334;SDS011;9293;49.524;10.964;2022-10-16T05:21:58;3.97;;;2.00;;
18334;SDS011;9293;49.524;10.964;2022-10-16T05:24:26;4.05;;;2.70;;
18334;SDS011;9293;49.524;10.964;2022-10-16T05:26:54;4.38;;;2.25;;
18334;SDS011;9293;49.524;10.964;2022-10-16T05:29:22;5.07;;;2.30;;
18334;SDS011;9293;49.524;10.964;2022-10-16T05:31:52;4.07;;;1.80;;
18334;SDS011;9293;49.524;10.964;2022-10-16T05:34:20;3.75;;;1.98;;
18334;SDS011;9293;49.524;10.964;2022-10-16T05:36:49;4.18;;;2.08;;
18334;SDS011;9293;49.524;10.964;2022-10-16T05:39:17;5.88;;;2.13;;
18334;SDS011;9293;49.524;10.964;2022-10-16T05:41:45;3.47;;;1.90;;
18334;SDS011;9293;49.524;10.964;2022-10-16T05:44:14;7.43;;;2.50;;
18334;SDS011;9293;49.524;10.964;2022-10-16T05:46:41;6.05;;;2.00;;
18334;SDS011;9293;49.524;10.964;2022-10-16T05:49:09;3.78;;;1.88;;
18334;SDS011;9293;49.524;10.964;2022-10-16T05:51:37;7.57;;;2.03;;
18334;SDS011;9293;49.524;10.964;2022-10-16T05:54:05;4.53;;;2.42;;
18334;SDS011;9293;49.524;10.964;2022-10-16T05:56:33;4.32;;;2.25;;
18334;SDS011;9293;49.524;10.964;2022-10-16T05:59:02;4.75;;;2.10;;
18334;SDS011;9293;49.524;10.964;2022-10-16T06:01:31;5.30;;;2.22;;
18334;SDS011;9293;49.524;10.964;2022-10-16T06:03:59;4.18;;;2.03;;
18334;SDS011;9293;49.524;10.964;2022-10-16T06:06:28;3.95;;;1.83;;
18334;SDS011;9293;49.524;10.964;2022-10-16T06:08:57;2.10;;;1.80;;
18334;SDS011;9293;49.524;10.964;2022-10-16T06:11:27;5.10;;;1.60;;
18334;SDS011;9293;49.524;10.964;2022-10-16T06:13:58;12.68;;;6.88;;
18334;SDS011;9293;49.524;10.964;2022-10-16T06:16:29;4.88;;;3.55;;
18334;SDS011;9293;49.524;10.964;2022-10-16T06:18:57;4.28;;;2.80;;
18334;SDS011;9293;49.524;10.964;2022-10-16T06:21:27;5.50;;;2.85;;
18334;SDS011;9293;49.524;10.964;2022-10-16T06:23:56;4.88;;;1.90;;
18334;SDS011;9293;49.524;10.964;2022-10-16T06:26:26;3.92;;;1.85;;
18334;SDS011;9293;49.524;10.964;2022-10-16T06:28:55;4.40;;;1.60;;
18334;SDS011;9293;49.524;10.964;2022-10-16T06:31:28;7.00;;;2.33;;
18334;SDS011;9293;49.524;10.964;2022-10-16T06:33:58;2.80;;;1.98;;
18334;SDS011;9293;49.524;10.964;2022-10-16T06:36:27;3.88;;;2.00;;
18334;SDS011;9293;49.524;10.964;2022-10-16T06:38:55;4.47;;;2.20;;
18334;SDS011;9293;49.524;10.964;2022-10-16T06:41:24;5.63;;;1.85;;
18334;SDS011;9293;49.524;10.964;2022-10-16T06:43:52;3.78;;;1.90;;
18334;SDS011;9293;49.524;10.964;2022-10-16T06:46:21;5.43;;;2.08;;
18334;SDS011;9293;49.524;10.964;2022-10-16T06:48:51;3.53;;;2.28;;
18334;SDS011;9293;49.524;10.964;2022-10-16T06:51:21;5.93;;;2.08;;
18334;SDS011;9293;49.524;10.964;2022-10-16T06:53:51;4.43;;;2.38;;
18334;SDS011;9293;49.524;10.964;2022-10-16T06:56:30;8.55;;;2.85;;
18334;SDS011;9293;49.524;10.964;2022-10-16T06:58:59;7.30;;;2.92;;
18334;SDS011;9293;49.524;10.964;2022-10-16T07:01:28;7.13;;;2.50;;
18334;SDS011;9293;49.524;10.964;2022-10-16T07:03:57;5.50;;;2.13;;
18334;SDS011;9293;49.524;10.964;2022-10-16T07:06:25;5.43;;;2.20;;
18334;SDS011;9293;49.524;10.964;2022-10-16T07:08:54;6.50;;;2.35;;
18334;SDS011;9293;49.524;10.964;2022-10-16T07:11:23;4.53;;;2.33;;
18334;SDS011;9293;49.524;10.964;2022-10-16T07:13:51;5.05;;;2.50;;
18334;SDS011;9293;49.524;10.964;2022-10-16T07:16:23;6.15;;;4.43;;
18334;SDS011;9293;49.524;10.964;2022-10-16T07:18:55;3.50;;;2.40;;
18334;SDS011;9293;49.524;10.964;2022-10-16T07:21:28;4.25;;;1.80;;
18334;SDS011;9293;49.524;10.964;2022-10-16T07:24:07;4.18;;;2.10;;
18334;SDS011;9293;49.524;10.964;2022-10-16T07:26:43;6.90;;;2.30;;
18334;SDS011;9293;49.524;10.964;2022-10-16T07:29:16;7.00;;;2.15;;
18334;SDS011;9293;49.524;10.964;2022-10-16T07:31:46;6.03;;;1.98;;
18334;SDS011;9293;49.524;10.964;2022-10-16T07:34:16;4.10;;;2.28;;
18334;SDS011;9293;49.524;10.964;2022-10-16T07:36:47;4.00;;;2.10;;
18334;SDS011;9293;49.524;10.964;2022-10-16T07:39:17;4.97;;;1.92;;
18334;SDS011;9293;49.524;10.964;2022-10-16T07:41:45;8.02;;;4.47;;
18334;SDS011;9293;49.524;10.964;2022-10-16T07:44:15;5.05;;;3.47;;
18334;SDS011;9293;49.524;10.964;2022-10-16T07:46:43;7.47;;;2.03;;
18334;SDS011;9293;49.524;10.964;2022-10-16T07:49:11;6.72;;;2.25;;
18334;SDS011;9293;49.524;10.964;2022-10-16T07:51:38;4.88;;;2.38;;
18334;SDS011;9293;49.524;10.964;2022-10-16T07:54:08;2.92;;;1.92;;
18334;SDS011;9293;49.524;10.964;2022-10-16T07:56:36;5.85;;;2.20;;
18334;SDS011;9293;49.524;10.964;2022-10-16T07:59:09;9.65;;;2.20;;
18334;SDS011;9293;49.524;10.964;2022-10-16T08:01:40;6.07;;;2.03;;
18334;SDS011;9293;49.524;10.964;2022-10-16T08:04:10;3.22;;;2.08;;
18334;SDS011;9293;49.524;10.964;2022-10-16T08:06:39;4.18;;;2.08;;
18334;SDS011;9293;49.524;10.964;2022-10-16T08:09:08;4.20;;;1.70;;
18334;SDS011;9293;49.524;10.964;2022-10-16T08:11:41;3.55;;;1.80;;
18334;SDS011;9293;49.524;10.964;2022-10-16T08:14:12;4.55;;;1.90;;
18334;SDS011;9293;49.524;10.964;2022-10-16T08:16:55;5.80;;;3.42;;
18334;SDS011;9293;49.524;10.964;2022-10-16T08:19:24;2.75;;;1.70;;
18334;SDS011;9293;49.524;10.964;2022-10-16T08:21:51;3.33;;;2.05;;
18334;SDS011;9293;49.524;10.964;2022-10-16T08:24:22;3.30;;;1.90;;
18334;SDS011;9293;49.524;10.964;2022-10-16T08:26:50;5.47;;;1.88;;
18334;SDS011;9293;49.524;10.964;2022-10-16T08:31:51;3.92;;;2.00;;
18334;SDS011;9293;49.524;10.964;2022-10-16T08:34:19;4.47;;;1.77;;
18334;SDS011;9293;49.524;10.964;2022-10-16T08:36:47;2.97;;;1.70;;
18334;SDS011;9293;49.524;10.964;2022-10-16T08:39:15;6.22;;;1.92;;
18334;SDS011;9293;49.524;10.964;2022-10-16T08:45:07;2.88;;;1.65;;
18334;SDS011;9293;49.524;10.964;2022-10-16T08:47:44;2.72;;;1.77;;
18334;SDS011;9293;49.524;10.964;2022-10-16T08:50:21;2.17;;;1.25;;
18334;SDS011;9293;49.524;10.964;2022-10-16T08:52:55;4.68;;;1.30;;
18334;SDS011;9293;49.524;10.964;2022-10-16T08:55:28;3.95;;;1.60;;
18334;SDS011;9293;49.524;10.964;2022-10-16T08:57:56;3.80;;;2.00;;
18334;SDS011;9293;49.524;10.964;2022-10-16T09:00:24;2.05;;;1.27;;
18334;SDS011;9293;49.524;10.964;2022-10-16T09:11:14;2.15;;;1.30;;
18334;SDS011;9293;49.524;10.964;2022-10-16T09:14:07;4.55;;;1.48;;
18334;SDS011;9293;49.524;10.964;2022-10-16T09:16:59;3.55;;;1.50;;
18334;SDS011;9293;49.524;10.964;2022-10-16T09:23:13;8.68;;;5.97;;
18334;SDS011;9293;49.524;10.964;2022-10-16T09:25:43;5.65;;;2.88;;
18334;SDS011;9293;49.524;10.964;2022-10-16T09:28:18;6.65;;;2.88;;
18334;SDS011;9293;49.524;10.964;2022-10-16T09:30:46;6.63;;;2.70;;
18334;SDS011;9293;49.524;10.964;2022-10-16T09:35:50;6.13;;;2.40;;
18334;SDS011;9293;49.524;10.964;2022-10-16T09:38:41;3.10;;;1.98;;
18334;SDS011;9293;49.524;10.964;2022-10-16T09:43:59;4.53;;;2.15;;
18334;SDS011;9293;49.524;10.964;2022-10-16T09:46:38;4.13;;;1.70;;
18334;SDS011;9293;49.524;10.964;2022-10-16T09:49:26;5.57;;;1.80;;
18334;SDS011;9293;49.524;10.964;2022-10-16T09:52:11;2.75;;;1.38;;
18334;SDS011;9293;49.524;10.964;2022-10-16T09:54:50;4.68;;;1.90;;
18334;SDS011;9293;49.524;10.964;2022-10-16T09:57:26;3.15;;;1.83;;
18334;SDS011;9293;49.524;10.964;2022-10-16T09:59:56;2.97;;;1.30;;
18334;SDS011;9293;49.524;10.964;2022-10-16T10:02:33;2.90;;;1.50;;
18334;SDS011;9293;49.524;10.964;2022-10-16T10:05:02;5.55;;;1.67;;
18334;SDS011;9293;49.524;10.964;2022-10-16T10:07:39;3.83;;;1.52;;
18334;SDS011;9293;49.524;10.964;2022-10-16T10:10:20;2.53;;;1.50;;
18334;SDS011;9293;49.524;10.964;2022-10-16T10:12:53;2.33;;;1.20;;
18334;SDS011;9293;49.524;10.964;2022-10-16T10:15:23;3.13;;;1.60;;
18334;SDS011;9293;49.524;10.964;2022-10-16T10:17:53;2.50;;;1.65;;
18334;SDS011;9293;49.524;10.964;2022-10-16T10:20:30;2.50;;;1.45;;
18334;SDS011;9293;49.524;10.964;2022-10-16T10:23:01;2.45;;;1.77;;
18334;SDS011;9293;49.524;10.964;2022-10-16T10:28:55;3.30;;;2.00;;
18334;SDS011;9293;49.524;10.964;2022-10-16T10:31:39;3.95;;;2.28;;
18334;SDS011;9293;49.524;10.964;2022-10-16T10:34:26;4.55;;;1.75;;
18334;SDS011;9293;49.524;10.964;2022-10-16T10:39:56;3.78;;;2.10;;
18334;SDS011;9293;49.524;10.964;2022-10-16T10:45:18;3.85;;;2.03;;
18334;SDS011;9293;49.524;10.964;2022-10-16T10:47:59;3.13;;;1.75;;
18334;SDS011;9293;49.524;10.964;2022-10-16T10:53:48;3.67;;;1.70;;
18334;SDS011;9293;49.524;10.964;2022-10-16T11:02:15;4.18;;;1.80;;
18334;SDS011;9293;49.524;10.964;2022-10-16T11:07:53;3.92;;;1.70;;
18334;SDS011;9293;49.524;10.964;2022-10-16T11:10:53;10.07;;;4.13;;
18334;SDS011;9293;49.524;10.964;2022-10-16T11:16:30;8.13;;;2.95;;
18334;SDS011;9293;49.524;10.964;2022-10-16T11:24:42;3.75;;;1.50;;
18334;SDS011;9293;49.524;10.964;2022-10-16T11:27:40;3.45;;;1.80;;
18334;SDS011;9293;49.524;10.964;2022-10-16T11:30:22;4.40;;;1.45;;
18334;SDS011;9293;49.524;10.964;2022-10-16T11:46:47;2.53;;;1.30;;
18334;SDS011;9293;49.524;10.964;2022-10-16T11:49:49;5.57;;;1.20;;
18334;SDS011;9293;49.524;10.964;2022-10-16T11:55:44;1.70;;;1.33;;
18334;SDS011;9293;49.524;10.964;2022-10-16T11:58:19;4.22;;;1.98;;
18334;SDS011;9293;49.524;10.964;2022-10-16T12:00:58;2.78;;;1.17;;
18334;SDS011;9293;49.524;10.964;2022-10-16T12:09:15;3.75;;;1.50;;
18334;SDS011;9293;49.524;10.964;2022-10-16T12:12:03;4.72;;;1.40;;
18334;SDS011;9293;49.524;10.964;2022-10-16T12:20:12;3.38;;;1.38;;
18334;SDS011;9293;49.524;10.964;2022-10-16T12:22:51;2.05;;;1.13;;
18334;SDS011;9293;49.524;10.964;2022-10-16T12:25:39;5.40;;;1.35;;
18334;SDS011;9293;49.524;10.964;2022-10-16T12:28:18;6.38;;;1.73;;
18334;SDS011;9293;49.524;10.964;2022-10-16T12:30:56;3.10;;;1.02;;
18334;SDS011;9293;49.524;10.964;2022-10-16T12:33:39;3.47;;;1.20;;
18334;SDS011;9293;49.524;10.964;2022-10-16T12:36:16;3.50;;;1.10;;
18334;SDS011;9293;49.524;10.964;2022-10-16T12:39:01;5.72;;;1.20;;
18334;SDS011;9293;49.524;10.964;2022-10-16T12:41:30;5.13;;;1.30;;
18334;SDS011;9293;49.524;10.964;2022-10-16T12:44:00;2.67;;;1.35;;
18334;SDS011;9293;49.524;10.964;2022-10-16T12:51:55;3.78;;;1.20;;
18334;SDS011;9293;49.524;10.964;2022-10-16T12:59:43;3.72;;;0.93;;
18334;SDS011;9293;49.524;10.964;2022-10-16T13:02:41;4.45;;;1.00;;
18334;SDS011;9293;49.524;10.964;2022-10-16T13:13:51;1.55;;;1.02;;
18334;SDS011;9293;49.524;10.964;2022-10-16T13:16:53;2.67;;;1.15;;
18334;SDS011;9293;49.524;10.964;2022-10-16T13:22:29;6.20;;;1.20;;
18334;SDS011;9293;49.524;10.964;2022-10-16T13:28:15;2.85;;;1.17;;
18334;SDS011;9293;49.524;10.964;2022-10-16T13:30:56;6.50;;;1.00;;
18334;SDS011;9293;49.524;10.964;2022-10-16T13:33:31;3.17;;;1.30;;
18334;SDS011;9293;49.524;10.964;2022-10-16T13:36:01;7.95;;;1.00;;
18334;SDS011;9293;49.524;10.964;2022-10-16T13:38:30;2.08;;;1.17;;
18334;SDS011;9293;49.524;10.964;2022-10-16T13:41:13;5.90;;;1.52;;
18334;SDS011;9293;49.524;10.964;2022-10-16T13:43:48;3.38;;;1.30;;
18334;SDS011;9293;49.524;10.964;2022-10-16T13:46:21;3.30;;;0.90;;
18334;SDS011;9293;49.524;10.964;2022-10-16T13:49:00;2.35;;;1.17;;
18334;SDS011;9293;49.524;10.964;2022-10-16T13:51:30;2.67;;;1.25;;
18334;SDS011;9293;49.524;10.964;2022-10-16T13:53:59;3.50;;;1.08;;
18334;SDS011;9293;49.524;10.964;2022-10-16T13:56:28;3.55;;;1.27;;
18334;SDS011;9293;49.524;10.964;2022-10-16T13:59:02;4.63;;;1.10;;
18334;SDS011;9293;49.524;10.964;2022-10-16T14:04:18;2.10;;;0.90;;
18334;SDS011;9293;49.524;10.964;2022-10-16T14:06:49;2.03;;;1.20;;
18334;SDS011;9293;49.524;10.964;2022-10-16T14:11:53;2.78;;;1.50;;
18334;SDS011;9293;49.524;10.964;2022-10-16T14:14:41;2.35;;;0.95;;
18334;SDS011;9293;49.524;10.964;2022-10-16T14:17:21;2.67;;;1.17;;
18334;SDS011;9293;49.524;10.964;2022-10-16T14:19:55;2.42;;;0.90;;
18334;SDS011;9293;49.524;10.964;2022-10-16T14:22:37;3.25;;;1.20;;
18334;SDS011;9293;49.524;10.964;2022-10-16T14:28:00;3.33;;;1.05;;
18334;SDS011;9293;49.524;10.964;2022-10-16T14:30:29;3.78;;;1.23;;
18334;SDS011;9293;49.524;10.964;2022-10-16T14:33:05;4.07;;;1.73;;
18334;SDS011;9293;49.524;10.964;2022-10-16T14:35:56;3.42;;;1.13;;
18334;SDS011;9293;49.524;10.964;2022-10-16T14:38:26;2.22;;;0.80;;
18334;SDS011;9293;49.524;10.964;2022-10-16T14:40:55;4.88;;;1.08;;
18334;SDS011;9293;49.524;10.964;2022-10-16T14:43:43;4.07;;;1.13;;
18334;SDS011;9293;49.524;10.964;2022-10-16T14:46:19;3.05;;;1.45;;
18334;SDS011;9293;49.524;10.964;2022-10-16T14:49:00;3.42;;;1.15;;
18334;SDS011;9293;49.524;10.964;2022-10-16T14:51:42;2.35;;;1.35;;
18334;SDS011;9293;49.524;10.964;2022-10-16T14:54:15;7.82;;;2.70;;
18334;SDS011;9293;49.524;10.964;2022-10-16T14:59:19;7.57;;;1.75;;
18334;SDS011;9293;49.524;10.964;2022-10-16T15:01:59;4.03;;;1.70;;
18334;SDS011;9293;49.524;10.964;2022-10-16T15:04:28;5.28;;;1.58;;
18334;SDS011;9293;49.524;10.964;2022-10-16T15:06:56;9.27;;;1.40;;
18334;SDS011;9293;49.524;10.964;2022-10-16T15:09:24;6.75;;;1.30;;
18334;SDS011;9293;49.524;10.964;2022-10-16T15:11:52;6.30;;;1.50;;
18334;SDS011;9293;49.524;10.964;2022-10-16T15:14:20;4.65;;;1.33;;
18334;SDS011;9293;49.524;10.964;2022-10-16T15:16:48;6.40;;;1.48;;
18334;SDS011;9293;49.524;10.964;2022-10-16T15:19:16;4.90;;;1.67;;
18334;SDS011;9293;49.524;10.964;2022-10-16T15:21:44;2.97;;;1.63;;
18334;SDS011;9293;49.524;10.964;2022-10-16T15:24:12;3.10;;;1.88;;
18334;SDS011;9293;49.524;10.964;2022-10-16T15:26:48;6.32;;;2.53;;
18334;SDS011;9293;49.524;10.964;2022-10-16T15:29:16;6.13;;;1.90;;
18334;SDS011;9293;49.524;10.964;2022-10-16T15:31:44;5.75;;;1.65;;
18334;SDS011;9293;49.524;10.964;2022-10-16T15:34:14;5.32;;;1.50;;
18334;SDS011;9293;49.524;10.964;2022-10-16T15:36:42;6.93;;;2.65;;
18334;SDS011;9293;49.524;10.964;2022-10-16T15:39:14;7.10;;;1.88;;
18334;SDS011;9293;49.524;10.964;2022-10-16T15:41:44;6.85;;;1.73;;
18334;SDS011;9293;49.524;10.964;2022-10-16T15:44:18;4.53;;;1.30;;
18334;SDS011;9293;49.524;10.964;2022-10-16T15:46:47;6.78;;;1.15;;
18334;SDS011;9293;49.524;10.964;2022-10-16T15:49:15;7.85;;;1.67;;
18334;SDS011;9293;49.524;10.964;2022-10-16T15:51:43;6.57;;;1.42;;
18334;SDS011;9293;49.524;10.964;2022-10-16T15:54:11;8.30;;;1.92;;
18334;SDS011;9293;49.524;10.964;2022-10-16T15:56:39;4.90;;;1.73;;
18334;SDS011;9293;49.524;10.964;2022-10-16T15:59:07;5.93;;;1.80;;
18334;SDS011;9293;49.524;10.964;2022-10-16T16:01:35;4.32;;;1.70;;
18334;SDS011;9293;49.524;10.964;2022-10-16T16:04:03;6.55;;;2.20;;
18334;SDS011;9293;49.524;10.964;2022-10-16T16:06:45;7.57;;;2.50;;
18334;SDS011;9293;49.524;10.964;2022-10-16T16:09:13;6.80;;;1.73;;
18334;SDS011;9293;49.524;10.964;2022-10-16T16:11:42;2.67;;;1.67;;
18334;SDS011;9293;49.524;10.964;2022-10-16T16:14:10;5.70;;;2.80;;
18334;SDS011;9293;49.524;10.964;2022-10-16T16:16:40;5.57;;;1.90;;
18334;SDS011;9293;49.524;10.964;2022-10-16T16:19:09;4.70;;;1.95;;
18334;SDS011;9293;49.524;10.964;2022-10-16T16:21:38;3.58;;;2.10;;
18334;SDS011;9293;49.524;10.964;2022-10-16T16:24:07;5.88;;;2.28;;
18334;SDS011;9293;49.524;10.964;2022-10-16T16:26:35;5.40;;;2.40;;
18334;SDS011;9293;49.524;10.964;2022-10-16T16:29:06;5.50;;;2.80;;
18334;SDS011;9293;49.524;10.964;2022-10-16T16:31:38;6.13;;;2.47;;
18334;SDS011;9293;49.524;10.964;2022-10-16T16:34:11;3.83;;;2.53;;
18334;SDS011;9293;49.524;10.964;2022-10-16T16:36:40;7.90;;;3.00;;
18334;SDS011;9293;49.524;10.964;2022-10-16T16:39:08;6.70;;;2.80;;
18334;SDS011;9293;49.524;10.964;2022-10-16T16:41:36;6.47;;;3.08;;
18334;SDS011;9293;49.524;10.964;2022-10-16T16:44:05;7.40;;;2.83;;
18334;SDS011;9293;49.524;10.964;2022-10-16T16:46:34;5.72;;;3.20;;
18334;SDS011;9293;49.524;10.964;2022-10-16T16:49:03;8.68;;;3.60;;
18334;SDS011;9293;49.524;10.964;2022-10-16T16:51:31;11.18;;;4.18;;
18334;SDS011;9293;49.524;10.964;2022-10-16T16:54:05;6.57;;;3.90;;
18334;SDS011;9293;49.524;10.964;2022-10-16T16:56:34;10.23;;;4.30;;
18334;SDS011;9293;49.524;10.964;2022-10-16T16:59:02;13.73;;;5.65;;
18334;SDS011;9293;49.524;10.964;2022-10-16T17:01:31;6.68;;;3.85;;
18334;SDS011;9293;49.524;10.964;2022-10-16T17:03:59;8.98;;;3.88;;
18334;SDS011;9293;49.524;10.964;2022-10-16T17:06:28;7.32;;;3.80;;
18334;SDS011;9293;49.524;10.964;2022-10-16T17:08:57;9.02;;;3.13;;
18334;SDS011;9293;49.524;10.964;2022-10-16T17:11:26;6.53;;;3.35;;
18334;SDS011;9293;49.524;10.964;2022-10-16T17:13:55;7.07;;;3.03;;
18334;SDS011;9293;49.524;10.964;2022-10-16T17:16:26;5.82;;;3.45;;
18334;SDS011;9293;49.524;10.964;2022-10-16T17:18:55;13.32;;;4.28;;
18334;SDS011;9293;49.524;10.964;2022-10-16T17:21:29;6.80;;;3.67;;
18334;SDS011;9293;49.524;10.964;2022-10-16T17:23:59;9.02;;;4.35;;